sensor_id;sensor_type;location;lat;lon;timestamp;temperature;humidity
5210;DHT22;2624;48.048;11.706;2024-02-26T00:01:09;3.80;99.90
5210;DHT22;2624;48.048;11.706;2024-02-26T00:06:12;3.80;99.90
5210;DHT22;2624;48.048;11.706;2024-02-26T00:11:14;4.30;99.90
5210;DHT22;2624;48.048;11.706;2024-02-26T00:16:15;4.50;99.90
5210;DHT22;2624;48.048;11.706;2024-02-26T00:21:19;4.00;99.90
5210;DHT22;2624;48.048;11.706;2024-02-26T00:26:20;3.50;99.90
5210;DHT22;2624;48.048;11.706;2024-02-26T00:31:22;3.90;99.90
5210;DHT22;2624;48.048;11.706;2024-02-26T00:36:25;3.90;99.90
5210;DHT22;2624;48.048;11.706;2024-02-26T00:41:27;3.30;99.90
5210;DHT22;2624;48.048;11.706;2024-02-26T00:46:29;4.00;99.90
5210;DHT22;2624;48.048;11.706;2024-02-26T00:51:32;3.60;99.90
5210;DHT22;2624;48.048;11.706;2024-02-26T00:56:33;3.20;99.90
5210;DHT22;2624;48.048;11.706;2024-02-26T01:01:35;3.50;99.90
5210;DHT22;2624;48.048;11.706;2024-02-26T01:06:39;3.50;99.90
5210;DHT22;2624;48.048;11.706;2024-02-26T01:11:40;3.60;99.90
5210;DHT22;2624;48.048;11.706;2024-02-26T01:16:42;3.00;99.90
5210;DHT22;2624;48.048;11.706;2024-02-26T01:21:45;2.60;99.90
5210;DHT22;2624;48.048;11.706;2024-02-26T01:26:47;2.70;99.90
5210;DHT22;2624;48.048;11.706;2024-02-26T01:31:49;2.40;99.90
5210;DHT22;2624;48.048;11.706;2024-02-26T01:36:52;1.90;99.90
5210;DHT22;2624;48.048;11.706;2024-02-26T01:41:53;3.20;99.90
5210;DHT22;2624;48.048;11.706;2024-02-26T01:46:55;3.70;99.90
5210;DHT22;2624;48.048;11.706;2024-02-26T01:51:58;3.60;99.90
5210;DHT22;2624;48.048;11.706;2024-02-26T01:57:01;2.80;99.90
5210;DHT22;2624;48.048;11.706;2024-02-26T02:02:06;3.20;99.90
5210;DHT22;2624;48.048;11.706;2024-02-26T02:07:11;3.30;99.90
5210;DHT22;2624;48.048;11.706;2024-02-26T02:12:13;3.60;99.90
5210;DHT22;2624;48.048;11.706;2024-02-26T02:17:15;3.20;99.90
5210;DHT22;2624;48.048;11.706;2024-02-26T02:22:19;2.90;99.90
5210;DHT22;2624;48.048;11.706;2024-02-26T02:27:20;2.40;99.90
5210;DHT22;2624;48.048;11.706;2024-02-26T02:32:22;2.00;99.90
5210;DHT22;2624;48.048;11.706;2024-02-26T02:37:27;1.80;99.90
5210;DHT22;2624;48.048;11.706;2024-02-26T02:42:29;2.20;99.90
5210;DHT22;2624;48.048;11.706;2024-02-26T02:47:30;2.60;99.90
5210;DHT22;2624;48.048;11.706;2024-02-26T02:52:34;2.80;99.90
5210;DHT22;2624;48.048;11.706;2024-02-26T02:57:35;2.60;99.90
5210;DHT22;2624;48.048;11.706;2024-02-26T03:02:41;2.10;99.90
5210;DHT22;2624;48.048;11.706;2024-02-26T03:07:44;1.90;99.90
5210;DHT22;2624;48.048;11.706;2024-02-26T03:12:46;1.50;99.90
5210;DHT22;2624;48.048;11.706;2024-02-26T03:17:48;1.50;99.90
5210;DHT22;2624;48.048;11.706;2024-02-26T03:22:51;1.70;99.90
5210;DHT22;2624;48.048;11.706;2024-02-26T03:27:53;1.90;99.90
5210;DHT22;2624;48.048;11.706;2024-02-26T03:32:54;1.90;99.90
5210;DHT22;2624;48.048;11.706;2024-02-26T03:37:57;1.50;99.90
5210;DHT22;2624;48.048;11.706;2024-02-26T03:42:59;1.80;99.90
5210;DHT22;2624;48.048;11.706;2024-02-26T03:48:01;1.60;99.90
5210;DHT22;2624;48.048;11.706;2024-02-26T03:53:04;1.70;99.90
5210;DHT22;2624;48.048;11.706;2024-02-26T03:58:06;2.00;99.90
5210;DHT22;2624;48.048;11.706;2024-02-26T04:03:08;1.70;99.90
5210;DHT22;2624;48.048;11.706;2024-02-26T04:08:11;1.30;99.90
5210;DHT22;2624;48.048;11.706;2024-02-26T04:13:12;1.20;99.90
5210;DHT22;2624;48.048;11.706;2024-02-26T04:18:15;1.20;99.90
5210;DHT22;2624;48.048;11.706;2024-02-26T04:23:18;1.10;99.90
5210;DHT22;2624;48.048;11.706;2024-02-26T04:28:19;1.50;99.90
5210;DHT22;2624;48.048;11.706;2024-02-26T04:33:22;1.30;99.90
5210;DHT22;2624;48.048;11.706;2024-02-26T04:38:26;1.20;99.90
5210;DHT22;2624;48.048;11.706;2024-02-26T04:43:27;1.10;99.90
5210;DHT22;2624;48.048;11.706;2024-02-26T04:48:29;1.20;99.90
5210;DHT22;2624;48.048;11.706;2024-02-26T04:53:32;1.70;99.90
5210;DHT22;2624;48.048;11.706;2024-02-26T04:58:34;1.70;99.90
5210;DHT22;2624;48.048;11.706;2024-02-26T05:03:36;1.50;99.90
5210;DHT22;2624;48.048;11.706;2024-02-26T05:08:39;1.50;99.90
5210;DHT22;2624;48.048;11.706;2024-02-26T05:13:41;1.50;99.90
5210;DHT22;2624;48.048;11.706;2024-02-26T05:18:43;1.50;99.90
5210;DHT22;2624;48.048;11.706;2024-02-26T05:23:46;1.60;99.90
5210;DHT22;2624;48.048;11.706;2024-02-26T05:28:48;1.70;99.90
5210;DHT22;2624;48.048;11.706;2024-02-26T05:33:49;1.90;99.90
5210;DHT22;2624;48.048;11.706;2024-02-26T05:38:53;1.50;99.90
5210;DHT22;2624;48.048;11.706;2024-02-26T05:43:55;1.60;99.90
5210;DHT22;2624;48.048;11.706;2024-02-26T05:48:57;2.20;99.90
5210;DHT22;2624;48.048;11.706;2024-02-26T05:54:00;2.20;99.90
5210;DHT22;2624;48.048;11.706;2024-02-26T05:59:02;1.50;99.90
5210;DHT22;2624;48.048;11.706;2024-02-26T06:04:04;1.20;99.90
5210;DHT22;2624;48.048;11.706;2024-02-26T06:09:07;1.40;99.90
5210;DHT22;2624;48.048;11.706;2024-02-26T06:14:09;1.70;99.90
5210;DHT22;2624;48.048;11.706;2024-02-26T06:19:12;1.40;99.90
5210;DHT22;2624;48.048;11.706;2024-02-26T06:24:15;1.30;99.90
5210;DHT22;2624;48.048;11.706;2024-02-26T06:29:17;1.30;99.90
5210;DHT22;2624;48.048;11.706;2024-02-26T06:34:19;1.30;99.90
5210;DHT22;2624;48.048;11.706;2024-02-26T06:39:22;1.30;99.90
5210;DHT22;2624;48.048;11.706;2024-02-26T06:44:23;1.30;99.90
5210;DHT22;2624;48.048;11.706;2024-02-26T06:49:26;1.40;99.90
5210;DHT22;2624;48.048;11.706;2024-02-26T06:54:29;1.70;99.90
5210;DHT22;2624;48.048;11.706;2024-02-26T06:59:31;1.60;99.90
5210;DHT22;2624;48.048;11.706;2024-02-26T07:04:33;1.50;99.90
5210;DHT22;2624;48.048;11.706;2024-02-26T07:09:36;1.50;99.90
5210;DHT22;2624;48.048;11.706;2024-02-26T07:14:38;1.60;99.90
5210;DHT22;2624;48.048;11.706;2024-02-26T07:19:40;1.90;99.90
5210;DHT22;2624;48.048;11.706;2024-02-26T07:24:43;2.10;99.90
5210;DHT22;2624;48.048;11.706;2024-02-26T07:29:44;2.10;99.90
5210;DHT22;2624;48.048;11.706;2024-02-26T07:34:47;2.20;99.90
5210;DHT22;2624;48.048;11.706;2024-02-26T07:39:50;2.40;99.90
5210;DHT22;2624;48.048;11.706;2024-02-26T07:44:51;2.40;99.90
5210;DHT22;2624;48.048;11.706;2024-02-26T07:49:53;2.50;99.90
5210;DHT22;2624;48.048;11.706;2024-02-26T07:54:56;2.40;99.90
5210;DHT22;2624;48.048;11.706;2024-02-26T07:59:58;2.60;99.90
5210;DHT22;2624;48.048;11.706;2024-02-26T08:05:00;2.60;99.90
5210;DHT22;2624;48.048;11.706;2024-02-26T08:10:04;2.50;99.90
5210;DHT22;2624;48.048;11.706;2024-02-26T08:15:07;2.50;99.90
5210;DHT22;2624;48.048;11.706;2024-02-26T08:20:09;2.70;99.90
5210;DHT22;2624;48.048;11.706;2024-02-26T08:25:13;2.70;99.90
5210;DHT22;2624;48.048;11.706;2024-02-26T08:30:16;2.80;99.90
5210;DHT22;2624;48.048;11.706;2024-02-26T08:35:18;2.80;99.90
5210;DHT22;2624;48.048;11.706;2024-02-26T08:40:22;2.80;99.90
5210;DHT22;2624;48.048;11.706;2024-02-26T08:45:23;3.20;99.90
5210;DHT22;2624;48.048;11.706;2024-02-26T08:50:27;3.20;99.90
5210;DHT22;2624;48.048;11.706;2024-02-26T08:55:30;3.30;99.90
5210;DHT22;2624;48.048;11.706;2024-02-26T09:00:32;3.40;99.90
5210;DHT22;2624;48.048;11.706;2024-02-26T09:05:34;3.70;99.90
5210;DHT22;2624;48.048;11.706;2024-02-26T09:10:38;3.60;99.90
5210;DHT22;2624;48.048;11.706;2024-02-26T09:15:39;3.30;99.90
5210;DHT22;2624;48.048;11.706;2024-02-26T09:20:41;3.40;99.90
5210;DHT22;2624;48.048;11.706;2024-02-26T09:25:44;3.40;99.90
5210;DHT22;2624;48.048;11.706;2024-02-26T09:30:46;3.40;99.90
5210;DHT22;2624;48.048;11.706;2024-02-26T09:35:49;3.60;99.90
5210;DHT22;2624;48.048;11.706;2024-02-26T09:40:52;3.70;99.90
5210;DHT22;2624;48.048;11.706;2024-02-26T09:45:54;4.10;99.90
5210;DHT22;2624;48.048;11.706;2024-02-26T09:50:56;4.00;99.90
5210;DHT22;2624;48.048;11.706;2024-02-26T09:56:00;3.90;99.90
5210;DHT22;2624;48.048;11.706;2024-02-26T10:01:03;4.20;99.90
5210;DHT22;2624;48.048;11.706;2024-02-26T10:06:08;4.60;99.90
5210;DHT22;2624;48.048;11.706;2024-02-26T10:11:13;4.50;99.90
5210;DHT22;2624;48.048;11.706;2024-02-26T10:16:14;4.40;99.90
5210;DHT22;2624;48.048;11.706;2024-02-26T10:21:17;4.60;99.90
5210;DHT22;2624;48.048;11.706;2024-02-26T10:26:21;4.40;99.90
5210;DHT22;2624;48.048;11.706;2024-02-26T10:31:22;4.60;99.90
5210;DHT22;2624;48.048;11.706;2024-02-26T10:36:26;4.50;99.90
5210;DHT22;2624;48.048;11.706;2024-02-26T10:41:29;4.70;99.90
5210;DHT22;2624;48.048;11.706;2024-02-26T10:46:31;4.70;99.90
5210;DHT22;2624;48.048;11.706;2024-02-26T10:51:34;4.80;99.90
5210;DHT22;2624;48.048;11.706;2024-02-26T10:56:41;5.10;99.90
5210;DHT22;2624;48.048;11.706;2024-02-26T11:01:44;5.30;99.90
5210;DHT22;2624;48.048;11.706;2024-02-26T11:06:47;5.90;99.90
5210;DHT22;2624;48.048;11.706;2024-02-26T11:11:51;6.80;99.90
5210;DHT22;2624;48.048;11.706;2024-02-26T11:16:56;6.90;99.90
5210;DHT22;2624;48.048;11.706;2024-02-26T11:21:58;7.30;99.90
5210;DHT22;2624;48.048;11.706;2024-02-26T11:27:05;7.20;99.90
5210;DHT22;2624;48.048;11.706;2024-02-26T11:32:07;7.50;99.90
5210;DHT22;2624;48.048;11.706;2024-02-26T11:37:10;7.50;99.90
5210;DHT22;2624;48.048;11.706;2024-02-26T11:42:16;7.40;99.90
5210;DHT22;2624;48.048;11.706;2024-02-26T11:47:19;8.20;99.90
5210;DHT22;2624;48.048;11.706;2024-02-26T11:52:21;8.40;99.90
5210;DHT22;2624;48.048;11.706;2024-02-26T11:57:26;8.10;99.90
5210;DHT22;2624;48.048;11.706;2024-02-26T12:02:40;8.50;99.90
5210;DHT22;2624;48.048;11.706;2024-02-26T12:07:46;7.90;99.90
5210;DHT22;2624;48.048;11.706;2024-02-26T12:12:53;8.80;99.90
5210;DHT22;2624;48.048;11.706;2024-02-26T12:17:56;9.50;99.90
5210;DHT22;2624;48.048;11.706;2024-02-26T12:22:58;9.30;99.90
5210;DHT22;2624;48.048;11.706;2024-02-26T12:28:01;8.90;99.90
5210;DHT22;2624;48.048;11.706;2024-02-26T12:33:03;10.00;99.90
5210;DHT22;2624;48.048;11.706;2024-02-26T12:38:07;9.70;99.90
5210;DHT22;2624;48.048;11.706;2024-02-26T12:43:10;10.60;99.90
5210;DHT22;2624;48.048;11.706;2024-02-26T12:48:13;9.60;99.90
5210;DHT22;2624;48.048;11.706;2024-02-26T12:53:15;9.40;99.90
5210;DHT22;2624;48.048;11.706;2024-02-26T12:58:18;9.30;99.90
5210;DHT22;2624;48.048;11.706;2024-02-26T13:03:25;9.40;99.90
5210;DHT22;2624;48.048;11.706;2024-02-26T13:08:27;9.40;99.90
5210;DHT22;2624;48.048;11.706;2024-02-26T13:13:31;9.50;99.90
5210;DHT22;2624;48.048;11.706;2024-02-26T13:18:33;9.50;99.90
5210;DHT22;2624;48.048;11.706;2024-02-26T13:23:35;9.50;99.90
5210;DHT22;2624;48.048;11.706;2024-02-26T13:28:38;10.30;99.90
5210;DHT22;2624;48.048;11.706;2024-02-26T13:33:40;10.20;99.90
5210;DHT22;2624;48.048;11.706;2024-02-26T13:38:51;10.40;99.90
5210;DHT22;2624;48.048;11.706;2024-02-26T13:43:54;9.40;99.90
5210;DHT22;2624;48.048;11.706;2024-02-26T13:48:58;9.90;99.90
5210;DHT22;2624;48.048;11.706;2024-02-26T13:54:00;9.80;99.90
5210;DHT22;2624;48.048;11.706;2024-02-26T13:59:03;9.60;99.90
5210;DHT22;2624;48.048;11.706;2024-02-26T14:04:05;10.10;99.90
5210;DHT22;2624;48.048;11.706;2024-02-26T14:09:09;10.00;99.90
5210;DHT22;2624;48.048;11.706;2024-02-26T14:14:12;10.30;99.90
5210;DHT22;2624;48.048;11.706;2024-02-26T14:19:14;9.60;99.90
5210;DHT22;2624;48.048;11.706;2024-02-26T14:24:16;9.50;99.90
5210;DHT22;2624;48.048;11.706;2024-02-26T14:29:19;9.40;99.90
5210;DHT22;2624;48.048;11.706;2024-02-26T14:34:20;9.60;99.90
5210;DHT22;2624;48.048;11.706;2024-02-26T14:39:22;9.60;99.90
5210;DHT22;2624;48.048;11.706;2024-02-26T14:44:25;9.70;99.90
5210;DHT22;2624;48.048;11.706;2024-02-26T14:49:27;9.30;99.90
5210;DHT22;2624;48.048;11.706;2024-02-26T14:54:31;9.30;99.90
5210;DHT22;2624;48.048;11.706;2024-02-26T14:59:35;9.10;99.90
5210;DHT22;2624;48.048;11.706;2024-02-26T15:04:38;9.30;99.90
5210;DHT22;2624;48.048;11.706;2024-02-26T15:09:39;9.30;99.90
5210;DHT22;2624;48.048;11.706;2024-02-26T15:14:42;9.40;99.90
5210;DHT22;2624;48.048;11.706;2024-02-26T15:19:45;9.40;99.90
5210;DHT22;2624;48.048;11.706;2024-02-26T15:24:47;9.50;99.90
5210;DHT22;2624;48.048;11.706;2024-02-26T15:29:50;9.40;99.90
5210;DHT22;2624;48.048;11.706;2024-02-26T15:34:58;9.30;99.90
5210;DHT22;2624;48.048;11.706;2024-02-26T15:40:00;9.20;99.90
5210;DHT22;2624;48.048;11.706;2024-02-26T15:45:04;9.10;99.90
5210;DHT22;2624;48.048;11.706;2024-02-26T15:50:07;9.10;99.90
5210;DHT22;2624;48.048;11.706;2024-02-26T15:55:11;9.10;99.90
5210;DHT22;2624;48.048;11.706;2024-02-26T16:00:16;9.10;99.90
5210;DHT22;2624;48.048;11.706;2024-02-26T16:05:18;9.00;99.90
5210;DHT22;2624;48.048;11.706;2024-02-26T16:10:20;9.00;99.90
5210;DHT22;2624;48.048;11.706;2024-02-26T16:15:23;9.10;99.90
5210;DHT22;2624;48.048;11.706;2024-02-26T16:20:25;9.10;99.90
5210;DHT22;2624;48.048;11.706;2024-02-26T16:25:29;9.00;99.90
5210;DHT22;2624;48.048;11.706;2024-02-26T16:30:33;9.00;99.90
5210;DHT22;2624;48.048;11.706;2024-02-26T16:35:34;8.90;99.90
5210;DHT22;2624;48.048;11.706;2024-02-26T16:40:37;8.90;99.90
5210;DHT22;2624;48.048;11.706;2024-02-26T16:45:42;8.80;99.90
5210;DHT22;2624;48.048;11.706;2024-02-26T16:50:44;8.70;99.90
5210;DHT22;2624;48.048;11.706;2024-02-26T16:55:46;8.70;99.90
5210;DHT22;2624;48.048;11.706;2024-02-26T17:00:49;8.70;99.90
5210;DHT22;2624;48.048;11.706;2024-02-26T17:05:51;8.60;99.90
5210;DHT22;2624;48.048;11.706;2024-02-26T17:10:53;8.60;99.90
5210;DHT22;2624;48.048;11.706;2024-02-26T17:15:56;8.70;99.90
5210;DHT22;2624;48.048;11.706;2024-02-26T17:20:58;8.60;99.90
5210;DHT22;2624;48.048;11.706;2024-02-26T17:26:00;8.60;99.90
5210;DHT22;2624;48.048;11.706;2024-02-26T17:31:03;8.60;99.90
5210;DHT22;2624;48.048;11.706;2024-02-26T17:36:05;8.60;99.90
5210;DHT22;2624;48.048;11.706;2024-02-26T17:41:09;8.60;99.90
5210;DHT22;2624;48.048;11.706;2024-02-26T17:46:14;8.50;99.90
5210;DHT22;2624;48.048;11.706;2024-02-26T17:51:15;8.50;99.90
5210;DHT22;2624;48.048;11.706;2024-02-26T17:56:17;8.50;99.90
5210;DHT22;2624;48.048;11.706;2024-02-26T18:01:20;8.50;99.90
5210;DHT22;2624;48.048;11.706;2024-02-26T18:06:22;8.50;99.90
5210;DHT22;2624;48.048;11.706;2024-02-26T18:11:24;8.50;99.90
5210;DHT22;2624;48.048;11.706;2024-02-26T18:16:27;8.40;99.90
5210;DHT22;2624;48.048;11.706;2024-02-26T18:21:29;8.40;99.90
5210;DHT22;2624;48.048;11.706;2024-02-26T18:26:31;8.30;99.90
5210;DHT22;2624;48.048;11.706;2024-02-26T18:31:35;8.00;99.90
5210;DHT22;2624;48.048;11.706;2024-02-26T18:36:42;7.90;99.90
5210;DHT22;2624;48.048;11.706;2024-02-26T18:41:43;8.10;99.90
5210;DHT22;2624;48.048;11.706;2024-02-26T18:46:46;8.00;99.90
5210;DHT22;2624;48.048;11.706;2024-02-26T18:51:48;8.10;99.90
5210;DHT22;2624;48.048;11.706;2024-02-26T18:56:50;8.20;99.90
5210;DHT22;2624;48.048;11.706;2024-02-26T19:01:53;8.10;99.90
5210;DHT22;2624;48.048;11.706;2024-02-26T19:06:55;8.10;99.90
5210;DHT22;2624;48.048;11.706;2024-02-26T19:11:57;8.10;99.90
5210;DHT22;2624;48.048;11.706;2024-02-26T19:17:00;8.00;99.90
5210;DHT22;2624;48.048;11.706;2024-02-26T19:22:01;8.00;99.90
5210;DHT22;2624;48.048;11.706;2024-02-26T19:27:06;7.70;99.90
5210;DHT22;2624;48.048;11.706;2024-02-26T19:32:09;7.50;99.90
5210;DHT22;2624;48.048;11.706;2024-02-26T19:37:12;7.20;99.90
5210;DHT22;2624;48.048;11.706;2024-02-26T19:42:13;7.20;99.90
5210;DHT22;2624;48.048;11.706;2024-02-26T19:47:17;7.40;99.90
5210;DHT22;2624;48.048;11.706;2024-02-26T19:52:19;7.60;99.90
5210;DHT22;2624;48.048;11.706;2024-02-26T19:57:20;7.70;99.90
5210;DHT22;2624;48.048;11.706;2024-02-26T20:02:24;7.70;99.90
5210;DHT22;2624;48.048;11.706;2024-02-26T20:07:25;7.70;99.90
5210;DHT22;2624;48.048;11.706;2024-02-26T20:12:28;7.70;99.90
5210;DHT22;2624;48.048;11.706;2024-02-26T20:17:32;7.60;99.90
5210;DHT22;2624;48.048;11.706;2024-02-26T20:22:33;7.60;99.90
5210;DHT22;2624;48.048;11.706;2024-02-26T20:27:35;7.60;99.90
5210;DHT22;2624;48.048;11.706;2024-02-26T20:32:38;7.50;99.90
5210;DHT22;2624;48.048;11.706;2024-02-26T20:37:40;6.80;99.90
5210;DHT22;2624;48.048;11.706;2024-02-26T20:42:42;6.90;99.90
5210;DHT22;2624;48.048;11.706;2024-02-26T20:47:47;7.00;99.90
5210;DHT22;2624;48.048;11.706;2024-02-26T20:52:51;7.30;99.90
5210;DHT22;2624;48.048;11.706;2024-02-26T20:57:53;7.00;99.90
5210;DHT22;2624;48.048;11.706;2024-02-26T21:02:57;6.90;99.90
5210;DHT22;2624;48.048;11.706;2024-02-26T21:08:00;7.20;99.90
5210;DHT22;2624;48.048;11.706;2024-02-26T21:13:03;7.10;99.90
5210;DHT22;2624;48.048;11.706;2024-02-26T21:18:06;7.10;99.90
5210;DHT22;2624;48.048;11.706;2024-02-26T21:23:10;7.00;99.90
5210;DHT22;2624;48.048;11.706;2024-02-26T21:28:13;6.90;99.90
5210;DHT22;2624;48.048;11.706;2024-02-26T21:33:16;7.00;99.90
5210;DHT22;2624;48.048;11.706;2024-02-26T21:38:17;7.00;99.90
5210;DHT22;2624;48.048;11.706;2024-02-26T21:43:20;7.00;99.90
5210;DHT22;2624;48.048;11.706;2024-02-26T21:48:24;6.70;99.90
5210;DHT22;2624;48.048;11.706;2024-02-26T21:53:25;6.80;99.90
5210;DHT22;2624;48.048;11.706;2024-02-26T21:58:27;6.70;99.90
5210;DHT22;2624;48.048;11.706;2024-02-26T22:03:30;6.10;99.90
5210;DHT22;2624;48.048;11.706;2024-02-26T22:08:32;5.80;99.90
5210;DHT22;2624;48.048;11.706;2024-02-26T22:13:34;6.30;99.90
5210;DHT22;2624;48.048;11.706;2024-02-26T22:18:39;6.00;99.90
5210;DHT22;2624;48.048;11.706;2024-02-26T22:23:41;6.40;99.90
5210;DHT22;2624;48.048;11.706;2024-02-26T22:28:43;6.50;99.90
5210;DHT22;2624;48.048;11.706;2024-02-26T22:33:46;6.50;99.90
5210;DHT22;2624;48.048;11.706;2024-02-26T22:38:48;6.50;99.90
5210;DHT22;2624;48.048;11.706;2024-02-26T22:43:50;6.50;99.90
5210;DHT22;2624;48.048;11.706;2024-02-26T22:48:53;6.30;99.90
5210;DHT22;2624;48.048;11.706;2024-02-26T22:53:55;5.90;99.90
5210;DHT22;2624;48.048;11.706;2024-02-26T22:58:57;5.90;99.90
5210;DHT22;2624;48.048;11.706;2024-02-26T23:04:00;5.60;99.90
5210;DHT22;2624;48.048;11.706;2024-02-26T23:09:02;5.90;99.90
5210;DHT22;2624;48.048;11.706;2024-02-26T23:14:04;5.80;99.90
5210;DHT22;2624;48.048;11.706;2024-02-26T23:19:07;6.10;99.90
5210;DHT22;2624;48.048;11.706;2024-02-26T23:24:09;5.60;99.90
5210;DHT22;2624;48.048;11.706;2024-02-26T23:29:10;6.00;99.90
5210;DHT22;2624;48.048;11.706;2024-02-26T23:34:14;6.00;99.90
5210;DHT22;2624;48.048;11.706;2024-02-26T23:39:15;6.00;99.90
5210;DHT22;2624;48.048;11.706;2024-02-26T23:44:17;5.50;99.90
5210;DHT22;2624;48.048;11.706;2024-02-26T23:49:20;4.80;99.90
5210;DHT22;2624;48.048;11.706;2024-02-26T23:54:22;5.10;99.90
5210;DHT22;2624;48.048;11.706;2024-02-26T23:59:24;5.60;99.90
